sensor_id;sensor_type;location;lat;lon;timestamp;temperature;humidity
17954;DHT22;9102;53.548;9.926;2023-01-01T00:00:34;15.30;99.90
17954;DHT22;9102;53.548;9.926;2023-01-01T00:03:02;15.20;99.90
17954;DHT22;9102;53.548;9.926;2023-01-01T00:05:29;15.20;99.90
17954;DHT22;9102;53.548;9.926;2023-01-01T00:07:55;15.20;99.90
17954;DHT22;9102;53.548;9.926;2023-01-01T00:10:22;15.20;99.90
17954;DHT22;9102;53.548;9.926;2023-01-01T00:12:54;15.20;99.90
17954;DHT22;9102;53.548;9.926;2023-01-01T00:15:21;15.20;99.90
17954;DHT22;9102;53.548;9.926;2023-01-01T00:17:48;15.20;99.90
17954;DHT22;9102;53.548;9.926;2023-01-01T00:20:16;15.20;99.90
17954;DHT22;9102;53.548;9.926;2023-01-01T00:22:43;15.10;99.90
17954;DHT22;9102;53.548;9.926;2023-01-01T00:25:11;15.10;99.90
17954;DHT22;9102;53.548;9.926;2023-01-01T00:27:39;15.10;99.90
17954;DHT22;9102;53.548;9.926;2023-01-01T00:30:07;15.20;99.90
17954;DHT22;9102;53.548;9.926;2023-01-01T00:32:35;15.20;99.90
17954;DHT22;9102;53.548;9.926;2023-01-01T00:35:01;15.30;99.90
17954;DHT22;9102;53.548;9.926;2023-01-01T00:37:30;15.30;99.90
17954;DHT22;9102;53.548;9.926;2023-01-01T00:39:57;15.30;99.90
17954;DHT22;9102;53.548;9.926;2023-01-01T00:42:23;15.30;99.90
17954;DHT22;9102;53.548;9.926;2023-01-01T00:44:50;15.30;99.90
17954;DHT22;9102;53.548;9.926;2023-01-01T00:47:17;15.30;99.90
17954;DHT22;9102;53.548;9.926;2023-01-01T00:49:44;15.30;99.90
17954;DHT22;9102;53.548;9.926;2023-01-01T00:52:11;15.30;99.90
17954;DHT22;9102;53.548;9.926;2023-01-01T00:54:39;15.20;99.90
17954;DHT22;9102;53.548;9.926;2023-01-01T00:57:06;15.20;99.90
17954;DHT22;9102;53.548;9.926;2023-01-01T00:59:33;15.20;99.90
17954;DHT22;9102;53.548;9.926;2023-01-01T01:01:59;15.20;99.90
17954;DHT22;9102;53.548;9.926;2023-01-01T01:04:26;15.30;99.90
17954;DHT22;9102;53.548;9.926;2023-01-01T01:06:53;15.20;99.90
17954;DHT22;9102;53.548;9.926;2023-01-01T01:09:20;15.30;99.90
17954;DHT22;9102;53.548;9.926;2023-01-01T01:11:48;15.30;99.90
17954;DHT22;9102;53.548;9.926;2023-01-01T01:14:15;15.40;99.90
17954;DHT22;9102;53.548;9.926;2023-01-01T01:16:42;15.40;99.90
17954;DHT22;9102;53.548;9.926;2023-01-01T01:19:09;15.30;99.90
17954;DHT22;9102;53.548;9.926;2023-01-01T01:21:40;15.20;99.90
17954;DHT22;9102;53.548;9.926;2023-01-01T01:24:09;15.20;99.90
17954;DHT22;9102;53.548;9.926;2023-01-01T01:26:36;15.30;99.90
17954;DHT22;9102;53.548;9.926;2023-01-01T01:29:04;15.30;99.90
17954;DHT22;9102;53.548;9.926;2023-01-01T01:31:32;15.30;99.90
17954;DHT22;9102;53.548;9.926;2023-01-01T01:33:59;15.20;99.90
17954;DHT22;9102;53.548;9.926;2023-01-01T01:36:27;15.20;99.90
17954;DHT22;9102;53.548;9.926;2023-01-01T01:38:54;15.20;99.90
17954;DHT22;9102;53.548;9.926;2023-01-01T01:41:23;15.20;99.90
17954;DHT22;9102;53.548;9.926;2023-01-01T01:43:52;15.10;99.90
17954;DHT22;9102;53.548;9.926;2023-01-01T01:46:27;15.20;99.90
17954;DHT22;9102;53.548;9.926;2023-01-01T01:48:59;15.30;99.90
17954;DHT22;9102;53.548;9.926;2023-01-01T01:51:32;15.30;99.90
17954;DHT22;9102;53.548;9.926;2023-01-01T01:54:02;15.40;99.90
17954;DHT22;9102;53.548;9.926;2023-01-01T01:56:37;15.30;99.90
17954;DHT22;9102;53.548;9.926;2023-01-01T01:59:05;15.30;99.90
17954;DHT22;9102;53.548;9.926;2023-01-01T02:01:34;15.30;99.90
17954;DHT22;9102;53.548;9.926;2023-01-01T02:04:01;15.30;99.90
17954;DHT22;9102;53.548;9.926;2023-01-01T02:06:30;15.30;99.90
17954;DHT22;9102;53.548;9.926;2023-01-01T02:09:01;15.30;99.90
17954;DHT22;9102;53.548;9.926;2023-01-01T02:11:28;15.30;99.90
17954;DHT22;9102;53.548;9.926;2023-01-01T02:13:56;15.30;99.90
17954;DHT22;9102;53.548;9.926;2023-01-01T02:16:27;15.40;99.90
17954;DHT22;9102;53.548;9.926;2023-01-01T02:19:00;15.40;99.90
17954;DHT22;9102;53.548;9.926;2023-01-01T02:21:31;15.40;99.90
17954;DHT22;9102;53.548;9.926;2023-01-01T02:24:33;15.50;99.90
17954;DHT22;9102;53.548;9.926;2023-01-01T02:27:03;15.40;99.90
17954;DHT22;9102;53.548;9.926;2023-01-01T02:29:37;15.30;99.90
17954;DHT22;9102;53.548;9.926;2023-01-01T02:32:09;15.30;99.90
17954;DHT22;9102;53.548;9.926;2023-01-01T02:34:39;15.20;99.90
17954;DHT22;9102;53.548;9.926;2023-01-01T02:37:09;15.20;99.90
17954;DHT22;9102;53.548;9.926;2023-01-01T02:39:44;15.30;99.90
17954;DHT22;9102;53.548;9.926;2023-01-01T02:42:12;15.20;99.90
17954;DHT22;9102;53.548;9.926;2023-01-01T02:44:42;15.30;99.90
17954;DHT22;9102;53.548;9.926;2023-01-01T02:47:12;15.30;99.90
17954;DHT22;9102;53.548;9.926;2023-01-01T02:49:52;15.30;99.90
17954;DHT22;9102;53.548;9.926;2023-01-01T02:52:35;15.30;99.90
17954;DHT22;9102;53.548;9.926;2023-01-01T02:55:18;15.20;99.90
17954;DHT22;9102;53.548;9.926;2023-01-01T02:57:51;15.20;99.90
17954;DHT22;9102;53.548;9.926;2023-01-01T03:00:20;15.20;99.90
17954;DHT22;9102;53.548;9.926;2023-01-01T03:03:09;15.20;99.90
17954;DHT22;9102;53.548;9.926;2023-01-01T03:05:43;15.10;99.90
17954;DHT22;9102;53.548;9.926;2023-01-01T03:08:29;15.10;99.90
17954;DHT22;9102;53.548;9.926;2023-01-01T03:11:02;15.10;99.90
17954;DHT22;9102;53.548;9.926;2023-01-01T03:13:37;14.90;99.90
17954;DHT22;9102;53.548;9.926;2023-01-01T03:16:09;14.90;99.90
17954;DHT22;9102;53.548;9.926;2023-01-01T03:18:42;14.80;99.90
17954;DHT22;9102;53.548;9.926;2023-01-01T03:21:12;14.70;99.90
17954;DHT22;9102;53.548;9.926;2023-01-01T03:23:48;14.70;99.90
17954;DHT22;9102;53.548;9.926;2023-01-01T03:26:20;14.70;99.90
17954;DHT22;9102;53.548;9.926;2023-01-01T03:28:53;14.70;99.90
17954;DHT22;9102;53.548;9.926;2023-01-01T03:31:24;14.60;99.90
17954;DHT22;9102;53.548;9.926;2023-01-01T03:33:55;14.60;99.90
17954;DHT22;9102;53.548;9.926;2023-01-01T03:36:29;14.70;99.90
17954;DHT22;9102;53.548;9.926;2023-01-01T03:39:00;14.70;99.90
17954;DHT22;9102;53.548;9.926;2023-01-01T03:41:35;14.70;99.90
17954;DHT22;9102;53.548;9.926;2023-01-01T03:44:06;14.70;99.90
17954;DHT22;9102;53.548;9.926;2023-01-01T03:46:36;14.60;99.90
17954;DHT22;9102;53.548;9.926;2023-01-01T03:49:07;14.70;99.90
17954;DHT22;9102;53.548;9.926;2023-01-01T03:51:47;14.70;99.90
17954;DHT22;9102;53.548;9.926;2023-01-01T03:54:22;14.70;99.90
17954;DHT22;9102;53.548;9.926;2023-01-01T03:56:56;14.70;99.90
17954;DHT22;9102;53.548;9.926;2023-01-01T03:59:30;14.60;99.90
17954;DHT22;9102;53.548;9.926;2023-01-01T04:02:01;14.70;99.90
17954;DHT22;9102;53.548;9.926;2023-01-01T04:04:29;14.80;99.90
17954;DHT22;9102;53.548;9.926;2023-01-01T04:06:57;14.70;99.90
17954;DHT22;9102;53.548;9.926;2023-01-01T04:09:29;14.70;99.90
17954;DHT22;9102;53.548;9.926;2023-01-01T04:11:57;14.80;99.90
17954;DHT22;9102;53.548;9.926;2023-01-01T04:14:30;14.80;99.90
17954;DHT22;9102;53.548;9.926;2023-01-01T04:16:58;14.70;99.90
17954;DHT22;9102;53.548;9.926;2023-01-01T04:19:27;14.70;99.90
17954;DHT22;9102;53.548;9.926;2023-01-01T04:21:54;14.60;99.90
17954;DHT22;9102;53.548;9.926;2023-01-01T04:24:20;14.60;99.90
17954;DHT22;9102;53.548;9.926;2023-01-01T04:26:48;14.70;99.90
17954;DHT22;9102;53.548;9.926;2023-01-01T04:29:15;14.70;99.90
17954;DHT22;9102;53.548;9.926;2023-01-01T04:31:42;14.70;99.90
17954;DHT22;9102;53.548;9.926;2023-01-01T04:34:09;14.70;99.90
17954;DHT22;9102;53.548;9.926;2023-01-01T04:36:37;14.80;99.90
17954;DHT22;9102;53.548;9.926;2023-01-01T04:39:04;14.80;99.90
17954;DHT22;9102;53.548;9.926;2023-01-01T04:41:31;14.80;99.90
17954;DHT22;9102;53.548;9.926;2023-01-01T04:43:59;14.70;99.90
17954;DHT22;9102;53.548;9.926;2023-01-01T04:46:26;14.70;99.90
17954;DHT22;9102;53.548;9.926;2023-01-01T04:48:53;14.80;99.90
17954;DHT22;9102;53.548;9.926;2023-01-01T04:51:20;14.80;99.90
17954;DHT22;9102;53.548;9.926;2023-01-01T04:53:48;14.90;99.90
17954;DHT22;9102;53.548;9.926;2023-01-01T04:56:17;14.80;99.90
17954;DHT22;9102;53.548;9.926;2023-01-01T04:58:45;14.90;99.90
17954;DHT22;9102;53.548;9.926;2023-01-01T05:01:18;14.80;99.90
17954;DHT22;9102;53.548;9.926;2023-01-01T05:03:46;14.80;99.90
17954;DHT22;9102;53.548;9.926;2023-01-01T05:06:14;14.70;99.90
17954;DHT22;9102;53.548;9.926;2023-01-01T05:08:42;14.70;99.90
17954;DHT22;9102;53.548;9.926;2023-01-01T05:11:13;14.80;99.90
17954;DHT22;9102;53.548;9.926;2023-01-01T05:13:41;14.70;99.90
17954;DHT22;9102;53.548;9.926;2023-01-01T05:16:10;14.80;99.90
17954;DHT22;9102;53.548;9.926;2023-01-01T05:18:37;14.80;99.90
17954;DHT22;9102;53.548;9.926;2023-01-01T05:21:07;14.80;99.90
17954;DHT22;9102;53.548;9.926;2023-01-01T05:23:34;14.90;99.90
17954;DHT22;9102;53.548;9.926;2023-01-01T05:26:08;14.90;99.90
17954;DHT22;9102;53.548;9.926;2023-01-01T05:28:37;14.90;99.90
17954;DHT22;9102;53.548;9.926;2023-01-01T05:31:05;14.90;99.90
17954;DHT22;9102;53.548;9.926;2023-01-01T05:33:33;14.90;99.90
17954;DHT22;9102;53.548;9.926;2023-01-01T05:36:00;14.80;99.90
17954;DHT22;9102;53.548;9.926;2023-01-01T05:38:27;14.80;99.90
17954;DHT22;9102;53.548;9.926;2023-01-01T05:40:54;14.90;99.90
17954;DHT22;9102;53.548;9.926;2023-01-01T05:43:21;14.90;99.90
17954;DHT22;9102;53.548;9.926;2023-01-01T05:45:58;15.00;99.90
17954;DHT22;9102;53.548;9.926;2023-01-01T05:48:25;15.00;99.90
17954;DHT22;9102;53.548;9.926;2023-01-01T05:50:52;14.90;99.90
17954;DHT22;9102;53.548;9.926;2023-01-01T05:53:19;14.90;99.90
17954;DHT22;9102;53.548;9.926;2023-01-01T05:55:51;14.90;99.90
17954;DHT22;9102;53.548;9.926;2023-01-01T05:58:18;15.00;99.90
17954;DHT22;9102;53.548;9.926;2023-01-01T06:00:45;15.00;99.90
17954;DHT22;9102;53.548;9.926;2023-01-01T06:03:14;15.00;99.90
17954;DHT22;9102;53.548;9.926;2023-01-01T06:05:41;15.00;99.90
17954;DHT22;9102;53.548;9.926;2023-01-01T06:08:08;15.00;99.90
17954;DHT22;9102;53.548;9.926;2023-01-01T06:10:34;15.00;99.90
17954;DHT22;9102;53.548;9.926;2023-01-01T06:13:01;15.00;99.90
17954;DHT22;9102;53.548;9.926;2023-01-01T06:15:28;15.00;99.90
17954;DHT22;9102;53.548;9.926;2023-01-01T06:17:56;15.00;99.90
17954;DHT22;9102;53.548;9.926;2023-01-01T06:20:25;15.00;99.90
17954;DHT22;9102;53.548;9.926;2023-01-01T06:22:52;15.00;99.90
17954;DHT22;9102;53.548;9.926;2023-01-01T06:25:18;15.00;99.90
17954;DHT22;9102;53.548;9.926;2023-01-01T06:27:45;15.10;99.90
17954;DHT22;9102;53.548;9.926;2023-01-01T06:30:12;15.10;99.90
17954;DHT22;9102;53.548;9.926;2023-01-01T06:32:39;15.10;99.90
17954;DHT22;9102;53.548;9.926;2023-01-01T06:35:07;15.10;99.90
17954;DHT22;9102;53.548;9.926;2023-01-01T06:37:35;15.10;99.90
17954;DHT22;9102;53.548;9.926;2023-01-01T06:40:03;15.10;99.90
17954;DHT22;9102;53.548;9.926;2023-01-01T06:42:30;15.10;99.90
17954;DHT22;9102;53.548;9.926;2023-01-01T06:44:56;15.10;99.90
17954;DHT22;9102;53.548;9.926;2023-01-01T06:47:23;15.00;99.90
17954;DHT22;9102;53.548;9.926;2023-01-01T06:49:50;15.00;99.90
17954;DHT22;9102;53.548;9.926;2023-01-01T06:52:17;15.00;99.90
17954;DHT22;9102;53.548;9.926;2023-01-01T06:54:45;14.90;99.90
17954;DHT22;9102;53.548;9.926;2023-01-01T06:57:12;14.90;99.90
17954;DHT22;9102;53.548;9.926;2023-01-01T06:59:38;14.90;99.90
17954;DHT22;9102;53.548;9.926;2023-01-01T07:02:08;14.90;99.90
17954;DHT22;9102;53.548;9.926;2023-01-01T07:04:35;14.90;99.90
17954;DHT22;9102;53.548;9.926;2023-01-01T07:07:02;14.90;99.90
17954;DHT22;9102;53.548;9.926;2023-01-01T07:09:29;14.90;99.90
17954;DHT22;9102;53.548;9.926;2023-01-01T07:11:57;14.90;99.90
17954;DHT22;9102;53.548;9.926;2023-01-01T07:14:24;14.80;99.90
17954;DHT22;9102;53.548;9.926;2023-01-01T07:16:51;14.80;99.90
17954;DHT22;9102;53.548;9.926;2023-01-01T07:19:17;14.80;99.90
17954;DHT22;9102;53.548;9.926;2023-01-01T07:21:45;14.70;99.90
17954;DHT22;9102;53.548;9.926;2023-01-01T07:24:17;14.70;99.90
17954;DHT22;9102;53.548;9.926;2023-01-01T07:26:44;14.60;99.90
17954;DHT22;9102;53.548;9.926;2023-01-01T07:29:13;14.60;99.90
17954;DHT22;9102;53.548;9.926;2023-01-01T07:31:42;14.60;99.90
17954;DHT22;9102;53.548;9.926;2023-01-01T07:34:12;14.60;99.90
17954;DHT22;9102;53.548;9.926;2023-01-01T07:36:39;14.60;99.90
17954;DHT22;9102;53.548;9.926;2023-01-01T07:39:06;14.60;99.90
17954;DHT22;9102;53.548;9.926;2023-01-01T07:41:34;14.60;99.90
17954;DHT22;9102;53.548;9.926;2023-01-01T07:44:01;14.50;99.90
17954;DHT22;9102;53.548;9.926;2023-01-01T07:46:29;14.60;99.90
17954;DHT22;9102;53.548;9.926;2023-01-01T07:48:56;14.50;99.90
17954;DHT22;9102;53.548;9.926;2023-01-01T07:51:23;14.50;99.90
17954;DHT22;9102;53.548;9.926;2023-01-01T07:53:49;14.50;99.90
17954;DHT22;9102;53.548;9.926;2023-01-01T07:56:16;14.50;99.90
17954;DHT22;9102;53.548;9.926;2023-01-01T07:58:43;14.40;99.90
17954;DHT22;9102;53.548;9.926;2023-01-01T08:01:11;14.50;99.90
17954;DHT22;9102;53.548;9.926;2023-01-01T08:03:40;14.50;99.90
17954;DHT22;9102;53.548;9.926;2023-01-01T08:06:08;14.50;99.90
17954;DHT22;9102;53.548;9.926;2023-01-01T08:08:35;14.40;99.90
17954;DHT22;9102;53.548;9.926;2023-01-01T08:11:02;14.40;99.90
17954;DHT22;9102;53.548;9.926;2023-01-01T08:13:29;14.40;99.90
17954;DHT22;9102;53.548;9.926;2023-01-01T08:15:56;14.40;99.90
17954;DHT22;9102;53.548;9.926;2023-01-01T08:18:23;14.40;99.90
17954;DHT22;9102;53.548;9.926;2023-01-01T08:20:51;14.30;99.90
17954;DHT22;9102;53.548;9.926;2023-01-01T08:23:18;14.40;99.90
17954;DHT22;9102;53.548;9.926;2023-01-01T08:25:45;14.40;99.90
17954;DHT22;9102;53.548;9.926;2023-01-01T08:28:12;14.40;99.90
17954;DHT22;9102;53.548;9.926;2023-01-01T08:30:39;14.50;99.90
17954;DHT22;9102;53.548;9.926;2023-01-01T08:33:05;14.40;99.90
17954;DHT22;9102;53.548;9.926;2023-01-01T08:35:33;14.40;99.90
17954;DHT22;9102;53.548;9.926;2023-01-01T08:38:03;14.50;99.90
17954;DHT22;9102;53.548;9.926;2023-01-01T08:40:29;14.40;99.90
17954;DHT22;9102;53.548;9.926;2023-01-01T08:42:56;14.40;99.90
17954;DHT22;9102;53.548;9.926;2023-01-01T08:45:23;14.40;99.90
17954;DHT22;9102;53.548;9.926;2023-01-01T08:47:50;14.40;99.90
17954;DHT22;9102;53.548;9.926;2023-01-01T08:50:16;14.40;99.90
17954;DHT22;9102;53.548;9.926;2023-01-01T08:52:43;14.40;99.90
17954;DHT22;9102;53.548;9.926;2023-01-01T08:55:11;14.40;99.90
17954;DHT22;9102;53.548;9.926;2023-01-01T08:57:38;14.40;99.90
17954;DHT22;9102;53.548;9.926;2023-01-01T09:00:06;14.50;99.90
17954;DHT22;9102;53.548;9.926;2023-01-01T09:02:34;14.50;99.90
17954;DHT22;9102;53.548;9.926;2023-01-01T09:05:01;14.60;99.90
17954;DHT22;9102;53.548;9.926;2023-01-01T09:07:28;14.60;99.90
17954;DHT22;9102;53.548;9.926;2023-01-01T09:09:54;14.60;99.90
17954;DHT22;9102;53.548;9.926;2023-01-01T09:12:22;14.60;99.90
17954;DHT22;9102;53.548;9.926;2023-01-01T09:14:49;14.60;99.90
17954;DHT22;9102;53.548;9.926;2023-01-01T09:17:16;14.60;99.90
17954;DHT22;9102;53.548;9.926;2023-01-01T09:19:43;14.60;99.90
17954;DHT22;9102;53.548;9.926;2023-01-01T09:22:13;14.60;99.90
17954;DHT22;9102;53.548;9.926;2023-01-01T09:24:40;14.60;99.90
17954;DHT22;9102;53.548;9.926;2023-01-01T09:27:07;14.50;99.90
17954;DHT22;9102;53.548;9.926;2023-01-01T09:29:35;14.40;99.90
17954;DHT22;9102;53.548;9.926;2023-01-01T09:32:02;14.30;99.90
17954;DHT22;9102;53.548;9.926;2023-01-01T09:34:29;14.20;99.90
17954;DHT22;9102;53.548;9.926;2023-01-01T09:36:55;14.10;99.90
17954;DHT22;9102;53.548;9.926;2023-01-01T09:39:22;14.20;99.90
17954;DHT22;9102;53.548;9.926;2023-01-01T09:42:01;14.20;99.90
17954;DHT22;9102;53.548;9.926;2023-01-01T09:45:01;14.30;99.90
17954;DHT22;9102;53.548;9.926;2023-01-01T09:47:34;14.40;99.90
17954;DHT22;9102;53.548;9.926;2023-01-01T09:50:06;14.40;99.90
17954;DHT22;9102;53.548;9.926;2023-01-01T09:52:42;14.40;99.90
17954;DHT22;9102;53.548;9.926;2023-01-01T09:55:17;14.40;99.90
17954;DHT22;9102;53.548;9.926;2023-01-01T09:57:44;14.40;99.90
17954;DHT22;9102;53.548;9.926;2023-01-01T10:00:16;14.50;99.90
17954;DHT22;9102;53.548;9.926;2023-01-01T10:03:03;14.40;99.90
17954;DHT22;9102;53.548;9.926;2023-01-01T10:05:38;14.40;99.90
17954;DHT22;9102;53.548;9.926;2023-01-01T10:08:11;14.30;99.90
17954;DHT22;9102;53.548;9.926;2023-01-01T10:10:46;14.30;99.90
17954;DHT22;9102;53.548;9.926;2023-01-01T10:13:22;14.30;99.90
17954;DHT22;9102;53.548;9.926;2023-01-01T10:15:56;14.30;99.90
17954;DHT22;9102;53.548;9.926;2023-01-01T10:18:26;14.20;99.90
17954;DHT22;9102;53.548;9.926;2023-01-01T10:21:01;14.20;99.90
17954;DHT22;9102;53.548;9.926;2023-01-01T10:23:34;14.30;99.90
17954;DHT22;9102;53.548;9.926;2023-01-01T10:26:08;14.20;99.90
17954;DHT22;9102;53.548;9.926;2023-01-01T10:28:42;14.30;99.90
17954;DHT22;9102;53.548;9.926;2023-01-01T10:31:16;14.30;99.90
17954;DHT22;9102;53.548;9.926;2023-01-01T10:33:45;14.40;99.90
17954;DHT22;9102;53.548;9.926;2023-01-01T10:36:14;14.50;99.90
17954;DHT22;9102;53.548;9.926;2023-01-01T10:38:42;14.50;99.90
17954;DHT22;9102;53.548;9.926;2023-01-01T10:41:10;14.50;99.90
17954;DHT22;9102;53.548;9.926;2023-01-01T10:43:38;14.50;99.90
17954;DHT22;9102;53.548;9.926;2023-01-01T10:46:05;14.50;99.90
17954;DHT22;9102;53.548;9.926;2023-01-01T10:48:34;14.50;99.90
17954;DHT22;9102;53.548;9.926;2023-01-01T10:51:03;14.50;99.90
17954;DHT22;9102;53.548;9.926;2023-01-01T10:53:32;14.50;99.90
17954;DHT22;9102;53.548;9.926;2023-01-01T10:56:06;14.50;99.90
17954;DHT22;9102;53.548;9.926;2023-01-01T10:58:39;14.50;99.90
17954;DHT22;9102;53.548;9.926;2023-01-01T11:01:08;14.60;99.90
17954;DHT22;9102;53.548;9.926;2023-01-01T11:03:52;14.50;99.90
17954;DHT22;9102;53.548;9.926;2023-01-01T11:06:20;14.40;99.90
17954;DHT22;9102;53.548;9.926;2023-01-01T11:08:49;14.30;99.90
17954;DHT22;9102;53.548;9.926;2023-01-01T11:11:21;14.20;99.90
17954;DHT22;9102;53.548;9.926;2023-01-01T11:13:53;14.20;99.90
17954;DHT22;9102;53.548;9.926;2023-01-01T11:16:20;14.20;99.90
17954;DHT22;9102;53.548;9.926;2023-01-01T11:18:49;14.20;99.90
17954;DHT22;9102;53.548;9.926;2023-01-01T11:21:21;14.20;99.90
17954;DHT22;9102;53.548;9.926;2023-01-01T11:23:51;14.10;99.90
17954;DHT22;9102;53.548;9.926;2023-01-01T11:26:33;14.10;99.90
17954;DHT22;9102;53.548;9.926;2023-01-01T11:29:02;14.10;99.90
17954;DHT22;9102;53.548;9.926;2023-01-01T11:31:34;14.00;99.90
17954;DHT22;9102;53.548;9.926;2023-01-01T11:34:04;14.00;99.90
17954;DHT22;9102;53.548;9.926;2023-01-01T11:36:37;14.00;99.90
17954;DHT22;9102;53.548;9.926;2023-01-01T11:39:18;14.00;99.90
17954;DHT22;9102;53.548;9.926;2023-01-01T11:41:47;14.00;99.90
17954;DHT22;9102;53.548;9.926;2023-01-01T11:44:25;13.90;99.90
17954;DHT22;9102;53.548;9.926;2023-01-01T11:46:53;14.00;99.90
17954;DHT22;9102;53.548;9.926;2023-01-01T11:49:24;14.00;99.90
17954;DHT22;9102;53.548;9.926;2023-01-01T11:51:51;14.00;99.90
17954;DHT22;9102;53.548;9.926;2023-01-01T11:54:29;13.90;99.90
17954;DHT22;9102;53.548;9.926;2023-01-01T11:57:02;13.80;99.90
17954;DHT22;9102;53.548;9.926;2023-01-01T11:59:39;13.80;99.90
17954;DHT22;9102;53.548;9.926;2023-01-01T12:02:12;13.80;99.90
17954;DHT22;9102;53.548;9.926;2023-01-01T12:04:45;13.80;99.90
17954;DHT22;9102;53.548;9.926;2023-01-01T12:07:16;13.70;99.90
17954;DHT22;9102;53.548;9.926;2023-01-01T12:09:47;13.70;99.90
17954;DHT22;9102;53.548;9.926;2023-01-01T12:12:22;13.70;99.90
17954;DHT22;9102;53.548;9.926;2023-01-01T12:14:54;13.60;99.90
17954;DHT22;9102;53.548;9.926;2023-01-01T12:17:26;13.60;99.90
17954;DHT22;9102;53.548;9.926;2023-01-01T12:20:01;13.60;99.90
17954;DHT22;9102;53.548;9.926;2023-01-01T12:22:29;13.70;99.90
17954;DHT22;9102;53.548;9.926;2023-01-01T12:24:57;13.70;99.90
17954;DHT22;9102;53.548;9.926;2023-01-01T12:27:40;13.70;99.90
17954;DHT22;9102;53.548;9.926;2023-01-01T12:30:18;13.80;99.90
17954;DHT22;9102;53.548;9.926;2023-01-01T12:33:01;13.90;99.90
17954;DHT22;9102;53.548;9.926;2023-01-01T12:38:44;14.10;99.90
17954;DHT22;9102;53.548;9.926;2023-01-01T12:41:22;14.10;99.90
17954;DHT22;9102;53.548;9.926;2023-01-01T12:43:59;14.00;99.90
17954;DHT22;9102;53.548;9.926;2023-01-01T12:46:48;14.00;99.90
17954;DHT22;9102;53.548;9.926;2023-01-01T12:52:22;13.90;99.90
17954;DHT22;9102;53.548;9.926;2023-01-01T12:57:58;13.90;99.90
17954;DHT22;9102;53.548;9.926;2023-01-01T13:00:26;13.80;99.90
17954;DHT22;9102;53.548;9.926;2023-01-01T13:02:58;13.90;99.90
17954;DHT22;9102;53.548;9.926;2023-01-01T13:05:31;13.80;99.90
17954;DHT22;9102;53.548;9.926;2023-01-01T13:08:03;13.70;99.90
17954;DHT22;9102;53.548;9.926;2023-01-01T13:10:33;13.70;99.90
17954;DHT22;9102;53.548;9.926;2023-01-01T13:13:01;13.60;99.90
17954;DHT22;9102;53.548;9.926;2023-01-01T13:15:49;13.50;99.90
17954;DHT22;9102;53.548;9.926;2023-01-01T13:18:28;13.50;99.90
17954;DHT22;9102;53.548;9.926;2023-01-01T13:21:02;13.50;99.90
17954;DHT22;9102;53.548;9.926;2023-01-01T13:23:45;13.40;99.90
17954;DHT22;9102;53.548;9.926;2023-01-01T13:26:45;13.30;99.90
17954;DHT22;9102;53.548;9.926;2023-01-01T13:29:33;13.30;99.90
17954;DHT22;9102;53.548;9.926;2023-01-01T13:32:05;13.20;99.90
17954;DHT22;9102;53.548;9.926;2023-01-01T13:35:00;13.20;99.90
17954;DHT22;9102;53.548;9.926;2023-01-01T13:43:29;13.30;99.90
17954;DHT22;9102;53.548;9.926;2023-01-01T13:45:58;13.30;99.90
17954;DHT22;9102;53.548;9.926;2023-01-01T13:48:56;13.20;99.90
17954;DHT22;9102;53.548;9.926;2023-01-01T13:51:51;13.20;99.90
17954;DHT22;9102;53.548;9.926;2023-01-01T13:57:28;13.10;99.90
17954;DHT22;9102;53.548;9.926;2023-01-01T14:00:04;13.00;99.90
17954;DHT22;9102;53.548;9.926;2023-01-01T14:02:42;12.90;99.90
17954;DHT22;9102;53.548;9.926;2023-01-01T14:05:16;12.80;99.90
17954;DHT22;9102;53.548;9.926;2023-01-01T14:07:45;12.70;99.90
17954;DHT22;9102;53.548;9.926;2023-01-01T14:10:22;12.80;99.90
17954;DHT22;9102;53.548;9.926;2023-01-01T14:12:51;12.80;99.90
17954;DHT22;9102;53.548;9.926;2023-01-01T14:15:25;12.70;99.90
17954;DHT22;9102;53.548;9.926;2023-01-01T14:17:53;12.80;99.90
17954;DHT22;9102;53.548;9.926;2023-01-01T14:20:22;12.70;99.90
17954;DHT22;9102;53.548;9.926;2023-01-01T14:22:52;12.70;99.90
17954;DHT22;9102;53.548;9.926;2023-01-01T14:25:25;12.70;99.90
17954;DHT22;9102;53.548;9.926;2023-01-01T14:27:55;12.60;99.90
17954;DHT22;9102;53.548;9.926;2023-01-01T14:30:24;12.60;99.90
17954;DHT22;9102;53.548;9.926;2023-01-01T14:32:55;12.70;99.90
17954;DHT22;9102;53.548;9.926;2023-01-01T14:35:22;12.70;99.90
17954;DHT22;9102;53.548;9.926;2023-01-01T14:37:49;12.70;99.90
17954;DHT22;9102;53.548;9.926;2023-01-01T14:40:17;12.60;99.90
17954;DHT22;9102;53.548;9.926;2023-01-01T14:42:56;12.60;99.90
17954;DHT22;9102;53.548;9.926;2023-01-01T14:45:25;12.60;99.90
17954;DHT22;9102;53.548;9.926;2023-01-01T14:47:54;12.50;99.90
17954;DHT22;9102;53.548;9.926;2023-01-01T14:50:25;12.50;99.90
17954;DHT22;9102;53.548;9.926;2023-01-01T14:52:56;12.40;99.90
17954;DHT22;9102;53.548;9.926;2023-01-01T14:55:27;12.30;99.90
17954;DHT22;9102;53.548;9.926;2023-01-01T14:57:58;12.30;99.90
17954;DHT22;9102;53.548;9.926;2023-01-01T15:00:29;12.30;99.90
17954;DHT22;9102;53.548;9.926;2023-01-01T15:03:04;12.30;99.90
17954;DHT22;9102;53.548;9.926;2023-01-01T15:05:33;12.30;99.90
17954;DHT22;9102;53.548;9.926;2023-01-01T15:08:02;12.30;99.90
17954;DHT22;9102;53.548;9.926;2023-01-01T15:10:31;12.10;99.90
17954;DHT22;9102;53.548;9.926;2023-01-01T15:12:58;12.10;99.90
17954;DHT22;9102;53.548;9.926;2023-01-01T15:15:35;12.00;99.90
17954;DHT22;9102;53.548;9.926;2023-01-01T15:18:03;12.00;99.90
17954;DHT22;9102;53.548;9.926;2023-01-01T15:20:30;11.90;99.90
17954;DHT22;9102;53.548;9.926;2023-01-01T15:22:57;11.90;99.90
17954;DHT22;9102;53.548;9.926;2023-01-01T15:25:24;11.90;99.90
17954;DHT22;9102;53.548;9.926;2023-01-01T15:27:53;11.80;99.90
17954;DHT22;9102;53.548;9.926;2023-01-01T15:30:25;11.80;99.90
17954;DHT22;9102;53.548;9.926;2023-01-01T15:32:54;11.70;99.90
17954;DHT22;9102;53.548;9.926;2023-01-01T15:35:27;11.70;99.90
17954;DHT22;9102;53.548;9.926;2023-01-01T15:37:58;11.70;99.90
17954;DHT22;9102;53.548;9.926;2023-01-01T15:40:32;11.70;99.90
17954;DHT22;9102;53.548;9.926;2023-01-01T15:43:21;11.70;99.90
17954;DHT22;9102;53.548;9.926;2023-01-01T15:45:55;11.70;99.90
17954;DHT22;9102;53.548;9.926;2023-01-01T15:48:29;11.80;99.90
17954;DHT22;9102;53.548;9.926;2023-01-01T15:51:05;11.80;99.90
17954;DHT22;9102;53.548;9.926;2023-01-01T15:53:46;11.80;99.90
17954;DHT22;9102;53.548;9.926;2023-01-01T15:56:14;11.90;99.90
17954;DHT22;9102;53.548;9.926;2023-01-01T15:58:48;11.90;99.90
17954;DHT22;9102;53.548;9.926;2023-01-01T16:01:19;11.90;99.90
17954;DHT22;9102;53.548;9.926;2023-01-01T16:03:48;11.90;99.90
17954;DHT22;9102;53.548;9.926;2023-01-01T16:06:18;11.90;99.90
17954;DHT22;9102;53.548;9.926;2023-01-01T16:08:45;11.90;99.90
17954;DHT22;9102;53.548;9.926;2023-01-01T16:11:12;12.00;99.90
17954;DHT22;9102;53.548;9.926;2023-01-01T16:13:39;11.90;99.90
17954;DHT22;9102;53.548;9.926;2023-01-01T16:16:22;12.00;99.90
17954;DHT22;9102;53.548;9.926;2023-01-01T16:18:54;12.00;99.90
17954;DHT22;9102;53.548;9.926;2023-01-01T16:21:23;11.90;99.90
17954;DHT22;9102;53.548;9.926;2023-01-01T16:23:51;11.90;99.90